Time;durP1;ratioP1;P1;durP2;ratioP2;P2;SDS_P1;SDS_P2;PMS_P1;PMS_P2;Temp;Humidity;BMP_temperature;BMP_pressure;BME280_temperature;BME280_humidity;BME280_pressure;Samples;Min_cycle;Max_cycle;Signal;HPM_P1;HPM_P2
2022/03/13 00:00:38;;;;;;;6.33;5.83;;;;;;;;;;6100363;23;20192;-88
2022/03/13 00:03:10;;;;;;;5.67;4.80;;;;;;;;;;6099842;23;20275;-88
2022/03/13 00:05:41;;;;;;;5.20;4.70;;;;;;;;;;6099837;23;20179;-88
2022/03/13 00:08:18;;;;;;;4.70;3.80;;;;;;;;;;6099753;23;20260;-88
2022/03/13 00:10:48;;;;;;;5.43;2.83;;;;;;;;;;6099832;23;20267;-88
2022/03/13 00:13:17;;;;;;;3.73;3.43;;;;;;;;;;6100363;23;20271;-88
2022/03/13 00:15:45;;;;;;;3.63;3.20;;;;;;;;;;6100170;23;20172;-88
2022/03/13 00:18:15;;;;;;;3.13;2.83;;;;;;;;;;6100190;23;20180;-88
2022/03/13 00:20:44;;;;;;;4.53;4.00;;;;;;;;;;6099769;23;20197;-88
2022/03/13 00:23:13;;;;;;;3.13;2.83;;;;;;;;;;6100035;23;20203;-88
2022/03/13 00:25:41;;;;;;;2.90;2.70;;;;;;;;;;6126693;23;20184;-87
2022/03/13 00:28:13;;;;;;;3.37;2.53;;;;;;;;;;6102639;23;20177;-88
2022/03/13 00:30:42;;;;;;;1.60;1.50;;;;;;;;;;6101980;23;20184;-87
2022/03/13 00:33:11;;;;;;;3.40;3.10;;;;;;;;;;6102232;23;20172;-89
2022/03/13 00:35:40;;;;;;;2.67;2.47;;;;;;;;;;6101895;23;20267;-89
2022/03/13 00:38:09;;;;;;;3.67;3.37;;;;;;;;;;6101948;23;20177;-88
2022/03/13 00:40:39;;;;;;;3.70;3.37;;;;;;;;;;6127733;23;20188;-89
2022/03/13 00:43:08;;;;;;;3.37;3.07;;;;;;;;;;6102149;23;20262;-89
2022/03/13 00:45:37;;;;;;;3.17;2.87;;;;;;;;;;6101806;23;20207;-89
2022/03/13 00:48:06;;;;;;;3.43;3.13;;;;;;;;;;6127439;23;20218;-89
2022/03/13 00:50:34;;;;;;;2.67;2.47;;;;;;;;;;6127254;23;20169;-89
2022/03/13 00:53:05;;;;;;;4.30;3.77;;;;;;;;;;6101694;23;20187;-88
2022/03/13 00:55:33;;;;;;;3.00;2.70;;;;;;;;;;6127307;23;20168;-88
2022/03/13 00:58:02;;;;;;;3.47;3.17;;;;;;;;;;6101974;23;20267;-89
2022/03/13 01:00:30;;;;;;;4.23;2.93;;;;;;;;;;6101975;23;20200;-89
2022/03/13 01:02:59;;;;;;;3.90;3.60;;;;;;;;;;6101618;23;20199;-89
2022/03/13 01:05:28;;;;;;;3.80;3.50;;;;;;;;;;6101348;23;20227;-89
2022/03/13 01:07:59;;;;;;;3.53;3.23;;;;;;;;;;6102110;23;20251;-88
2022/03/13 01:10:29;;;;;;;3.23;2.93;;;;;;;;;;6101651;23;20259;-89
2022/03/13 01:12:57;;;;;;;4.20;3.90;;;;;;;;;;6101335;23;20177;-90
2022/03/13 01:15:26;;;;;;;4.17;3.73;;;;;;;;;;6101547;23;20184;-88
2022/03/13 01:17:55;;;;;;;3.83;3.50;;;;;;;;;;6101834;23;20184;-89
2022/03/13 01:20:24;;;;;;;3.43;3.13;;;;;;;;;;6100932;23;20176;-89
2022/03/13 01:22:52;;;;;;;3.20;2.90;;;;;;;;;;6101627;23;20184;-89
2022/03/13 01:25:21;;;;;;;2.90;2.67;;;;;;;;;;6101586;23;20184;-89
2022/03/13 01:27:53;;;;;;;2.57;2.37;;;;;;;;;;6101349;23;20172;-89
2022/03/13 01:30:22;;;;;;;3.67;3.37;;;;;;;;;;6126835;23;20184;-89
2022/03/13 01:32:53;;;;;;;3.53;3.23;;;;;;;;;;6127247;23;20237;-89
2022/03/13 01:35:23;;;;;;;4.83;3.50;;;;;;;;;;6101213;23;20176;-89
2022/03/13 01:37:52;;;;;;;4.03;3.60;;;;;;;;;;6101575;23;20185;-89
2022/03/13 01:40:22;;;;;;;3.47;2.87;;;;;;;;;;6101528;23;20181;-88
2022/03/13 01:42:50;;;;;;;4.63;2.97;;;;;;;;;;6101398;23;20181;-89
2022/03/13 01:45:21;;;;;;;2.63;2.43;;;;;;;;;;6101224;23;20259;-89
2022/03/13 01:47:49;;;;;;;4.20;3.83;;;;;;;;;;6101048;23;20219;-89
2022/03/13 01:50:18;;;;;;;4.50;4.10;;;;;;;;;;6126643;23;20173;-89
2022/03/13 01:52:47;;;;;;;5.00;4.23;;;;;;;;;;6101562;23;20179;-88
2022/03/13 01:55:16;;;;;;;3.80;2.70;;;;;;;;;;6100925;23;20259;-89
2022/03/13 01:57:47;;;;;;;4.40;3.30;;;;;;;;;;6126794;23;20172;-89
2022/03/13 02:00:19;;;;;;;4.50;4.10;;;;;;;;;;6100654;23;20185;-89
2022/03/13 02:02:49;;;;;;;3.90;3.60;;;;;;;;;;6100903;23;20196;-89
2022/03/13 02:05:28;;;;;;;4.30;3.90;;;;;;;;;;6101604;23;20210;-89
2022/03/13 02:07:57;;;;;;;5.13;4.00;;;;;;;;;;6126837;23;20219;-89
2022/03/13 02:10:25;;;;;;;4.20;3.83;;;;;;;;;;6101045;23;20176;-89
2022/03/13 02:12:55;;;;;;;4.47;4.07;;;;;;;;;;6101432;23;20180;-89
2022/03/13 02:15:23;;;;;;;4.27;3.47;;;;;;;;;;6101032;23;20191;-88
2022/03/13 02:17:53;;;;;;;6.03;4.60;;;;;;;;;;6127250;23;20176;-88
2022/03/13 02:20:23;;;;;;;3.27;2.77;;;;;;;;;;6101002;23;20214;-88
2022/03/13 02:22:54;;;;;;;4.70;4.20;;;;;;;;;;6126434;23;20275;-89
2022/03/13 02:25:23;;;;;;;4.70;4.30;;;;;;;;;;6100787;23;20176;-89
2022/03/13 02:27:51;;;;;;;4.13;3.73;;;;;;;;;;6101241;23;20237;-89
2022/03/13 02:30:24;;;;;;;6.13;3.70;;;;;;;;;;6101199;23;20180;-89
2022/03/13 02:32:52;;;;;;;4.13;3.73;;;;;;;;;;6101154;23;20195;-89
2022/03/13 02:35:21;;;;;;;3.80;3.40;;;;;;;;;;6100472;23;20199;-89
2022/03/13 02:37:50;;;;;;;4.57;3.50;;;;;;;;;;6100642;23;20172;-88
2022/03/13 02:40:22;;;;;;;6.10;4.27;;;;;;;;;;6100533;23;20169;-89
2022/03/13 02:42:50;;;;;;;4.47;4.07;;;;;;;;;;6100572;23;20196;-88
2022/03/13 02:45:27;;;;;;;4.77;4.33;;;;;;;;;;6100630;23;20184;-88
2022/03/13 02:47:56;;;;;;;4.87;4.23;;;;;;;;;;6125670;23;20271;-89
2022/03/13 02:50:25;;;;;;;4.87;4.40;;;;;;;;;;6126646;23;20168;-89
2022/03/13 02:52:53;;;;;;;3.53;2.93;;;;;;;;;;6100182;23;20173;-89
2022/03/13 02:55:23;;;;;;;3.63;3.13;;;;;;;;;;6100760;23;20180;-89
2022/03/13 02:57:52;;;;;;;4.17;3.63;;;;;;;;;;6100664;23;20184;-88
2022/03/13 03:00:21;;;;;;;4.60;4.00;;;;;;;;;;6100727;23;20203;-89
2022/03/13 03:02:50;;;;;;;3.80;3.40;;;;;;;;;;6100383;23;20264;-88
2022/03/13 03:05:18;;;;;;;4.03;3.40;;;;;;;;;;6126553;23;20231;-88
2022/03/13 03:07:47;;;;;;;2.97;2.77;;;;;;;;;;6126021;23;20173;-89
2022/03/13 03:10:15;;;;;;;3.30;3.00;;;;;;;;;;6100862;23;20203;-89
2022/03/13 03:12:45;;;;;;;4.43;3.93;;;;;;;;;;6100422;23;20182;-88
2022/03/13 03:15:14;;;;;;;3.50;3.20;;;;;;;;;;6125854;23;20172;-88
2022/03/13 03:17:42;;;;;;;5.60;3.83;;;;;;;;;;6100077;23;20176;-88
2022/03/13 03:20:12;;;;;;;2.27;2.13;;;;;;;;;;6100670;23;20187;-88
2022/03/13 03:22:41;;;;;;;4.67;4.17;;;;;;;;;;6100443;23;20227;-89
2022/03/13 03:25:10;;;;;;;4.97;4.30;;;;;;;;;;6125996;23;20172;-89
2022/03/13 03:27:40;;;;;;;3.00;2.70;;;;;;;;;;6125893;23;20176;-89
2022/03/13 03:30:12;;;;;;;4.00;2.50;;;;;;;;;;6125785;23;20186;-89
2022/03/13 03:32:40;;;;;;;3.03;2.83;;;;;;;;;;6100619;23;20204;-89
2022/03/13 03:35:09;;;;;;;3.73;3.43;;;;;;;;;;6100049;23;20180;-89
2022/03/13 03:37:38;;;;;;;3.20;2.90;;;;;;;;;;6100370;23;20181;-89
2022/03/13 03:40:07;;;;;;;2.60;2.43;;;;;;;;;;6100350;23;20180;-89
2022/03/13 03:42:36;;;;;;;2.33;2.13;;;;;;;;;;6100446;23;20193;-88
2022/03/13 03:45:05;;;;;;;1.67;1.33;;;;;;;;;;6099710;23;20180;-89
2022/03/13 03:47:35;;;;;;;4.70;3.93;;;;;;;;;;6099752;23;20181;-89
2022/03/13 03:50:04;;;;;;;4.40;3.70;;;;;;;;;;6100333;23;20211;-89
2022/03/13 03:52:32;;;;;;;4.33;3.93;;;;;;;;;;6100334;23;20181;-88
2022/03/13 03:55:01;;;;;;;5.10;4.00;;;;;;;;;;6100090;23;20177;-89
2022/03/13 03:57:29;;;;;;;4.80;4.40;;;;;;;;;;6125942;23;20237;-88
2022/03/13 03:59:58;;;;;;;4.50;4.10;;;;;;;;;;6098910;23;20211;-89
2022/03/13 04:02:26;;;;;;;4.17;3.70;;;;;;;;;;6100337;23;20220;-88
2022/03/13 04:04:56;;;;;;;3.00;2.77;;;;;;;;;;6099865;23;20196;-89
2022/03/13 04:07:25;;;;;;;4.27;3.87;;;;;;;;;;6100395;23;20183;-90
2022/03/13 04:09:53;;;;;;;3.57;3.27;;;;;;;;;;6099914;23;20190;-89
2022/03/13 04:12:22;;;;;;;4.93;3.80;;;;;;;;;;6125760;23;20183;-89
2022/03/13 04:14:50;;;;;;;3.57;3.27;;;;;;;;;;6099782;23;20192;-89
2022/03/13 04:17:19;;;;;;;3.43;2.60;;;;;;;;;;6126305;23;20187;-89
2022/03/13 04:19:47;;;;;;;3.57;2.77;;;;;;;;;;6099651;23;20267;-89
2022/03/13 04:22:17;;;;;;;4.60;3.70;;;;;;;;;;6099802;23;20241;-89
2022/03/13 04:24:45;;;;;;;2.90;2.60;;;;;;;;;;6099917;23;20176;-89
2022/03/13 04:27:14;;;;;;;6.10;4.50;;;;;;;;;;6125681;23;20183;-89
2022/03/13 04:29:43;;;;;;;4.70;3.80;;;;;;;;;;6099601;23;20187;-89
2022/03/13 04:32:12;;;;;;;4.00;3.27;;;;;;;;;;6100077;23;20176;-89
2022/03/13 04:34:40;;;;;;;4.63;4.23;;;;;;;;;;6125831;23;20177;-88
2022/03/13 04:37:10;;;;;;;3.97;2.80;;;;;;;;;;6125438;23;20176;-87
2022/03/13 04:39:40;;;;;;;3.27;2.97;;;;;;;;;;6100066;23;20180;-89
2022/03/13 04:42:08;;;;;;;2.97;2.67;;;;;;;;;;6100163;23;20267;-89
2022/03/13 04:44:37;;;;;;;4.10;3.67;;;;;;;;;;6100210;23;20267;-89
2022/03/13 04:47:06;;;;;;;1.87;1.77;;;;;;;;;;6100136;23;20180;-89
2022/03/13 04:49:34;;;;;;;4.10;3.70;;;;;;;;;;6125553;23;20204;-89
2022/03/13 04:52:04;;;;;;;1.43;1.37;;;;;;;;;;6099902;23;20176;-89
2022/03/13 04:54:33;;;;;;;4.10;3.40;;;;;;;;;;6100386;23;20176;-89
2022/03/13 04:57:03;;;;;;;4.30;3.90;;;;;;;;;;6100338;23;20224;-89
2022/03/13 04:59:31;;;;;;;4.00;3.57;;;;;;;;;;6100703;23;20180;-89
2022/03/13 05:02:00;;;;;;;6.97;4.97;;;;;;;;;;6100986;23;20180;-89
2022/03/13 05:04:29;;;;;;;6.10;5.47;;;;;;;;;;6126541;23;20267;-89
2022/03/13 05:06:58;;;;;;;4.83;4.37;;;;;;;;;;6100994;23;20239;-89
2022/03/13 05:09:27;;;;;;;3.03;2.77;;;;;;;;;;6101464;23;20191;-90
2022/03/13 05:11:55;;;;;;;3.57;3.07;;;;;;;;;;6102671;23;20191;-89
2022/03/13 05:14:25;;;;;;;5.10;4.60;;;;;;;;;;6103819;23;20176;-89
2022/03/13 05:16:53;;;;;;;5.60;4.40;;;;;;;;;;6103630;23;20196;-89
2022/03/13 05:19:22;;;;;;;6.13;3.30;;;;;;;;;;6102343;23;20259;-89
2022/03/13 05:21:50;;;;;;;8.40;2.20;;;;;;;;;;6128151;23;20179;-89
2022/03/13 05:24:19;;;;;;;4.23;3.83;;;;;;;;;;6102615;23;20603;-89
2022/03/13 05:26:47;;;;;;;6.70;4.60;;;;;;;;;;6102391;23;20177;-89
2022/03/13 05:29:16;;;;;;;4.07;2.47;;;;;;;;;;6101810;23;20183;-88
2022/03/13 05:31:46;;;;;;;4.23;3.60;;;;;;;;;;6127582;23;20169;-89
2022/03/13 05:34:15;;;;;;;3.63;3.33;;;;;;;;;;6101751;23;20224;-89
2022/03/13 05:36:46;;;;;;;5.33;4.83;;;;;;;;;;6101871;23;20176;-89
2022/03/13 05:39:15;;;;;;;2.60;2.33;;;;;;;;;;6101311;23;20183;-89
2022/03/13 05:41:43;;;;;;;6.67;6.07;;;;;;;;;;6101458;23;20179;-89
2022/03/13 05:44:12;;;;;;;7.13;5.27;;;;;;;;;;6101838;23;20196;-89
2022/03/13 05:46:41;;;;;;;5.13;4.37;;;;;;;;;;6101335;23;20177;-89
2022/03/13 05:49:11;;;;;;;5.00;3.80;;;;;;;;;;6126989;23;20204;-89
2022/03/13 05:51:41;;;;;;;4.07;2.90;;;;;;;;;;6101480;23;20187;-89
2022/03/13 05:54:09;;;;;;;4.10;3.60;;;;;;;;;;6101226;23;20180;-89
2022/03/13 05:56:38;;;;;;;5.90;5.40;;;;;;;;;;6100641;23;20187;-88
2022/03/13 05:59:07;;;;;;;5.30;2.97;;;;;;;;;;6101137;23;20183;-89
2022/03/13 06:01:37;;;;;;;4.03;3.53;;;;;;;;;;6101318;23;20187;-89
2022/03/13 06:04:08;;;;;;;2.60;2.37;;;;;;;;;;6100903;23;20219;-89
2022/03/13 06:06:39;;;;;;;3.60;3.03;;;;;;;;;;6127340;23;20184;-89
2022/03/13 06:09:08;;;;;;;2.77;2.57;;;;;;;;;;6101107;23;20180;-89
2022/03/13 06:11:36;;;;;;;5.27;4.83;;;;;;;;;;6100792;23;20183;-90
2022/03/13 06:14:05;;;;;;;1.63;1.47;;;;;;;;;;6101226;23;20260;-90
2022/03/13 06:16:35;;;;;;;7.03;5.17;;;;;;;;;;6101019;23;20176;-89
2022/03/13 06:19:03;;;;;;;6.40;4.80;;;;;;;;;;6100956;23;20176;-89
2022/03/13 06:21:32;;;;;;;5.60;4.90;;;;;;;;;;6100788;23;20187;-89
2022/03/13 06:24:02;;;;;;;4.10;3.83;;;;;;;;;;6100867;23;20212;-90
2022/03/13 06:26:31;;;;;;;6.20;5.23;;;;;;;;;;6127087;23;20176;-89
2022/03/13 06:28:59;;;;;;;5.73;4.10;;;;;;;;;;6100685;23;20191;-90
2022/03/13 06:31:27;;;;;;;7.40;5.23;;;;;;;;;;6101221;23;20183;-88
2022/03/13 06:34:00;;;;;;;7.10;6.27;;;;;;;;;;6100837;23;20240;-87
2022/03/13 06:36:28;;;;;;;7.17;5.23;;;;;;;;;;6100678;23;20180;-89
2022/03/13 06:38:57;;;;;;;6.37;5.60;;;;;;;;;;6100734;23;20244;-88
2022/03/13 06:41:27;;;;;;;6.70;5.03;;;;;;;;;;6100547;23;20184;-89
2022/03/13 06:43:56;;;;;;;10.17;7.30;;;;;;;;;;6100928;23;20200;-89
2022/03/13 06:46:24;;;;;;;10.53;7.87;;;;;;;;;;6126753;23;20173;-89
2022/03/13 06:48:53;;;;;;;10.77;9.67;;;;;;;;;;6126552;23;20208;-88
2022/03/13 06:51:22;;;;;;;11.97;8.53;;;;;;;;;;6100556;23;20183;-88
2022/03/13 06:53:50;;;;;;;9.87;8.17;;;;;;;;;;6100933;23;20177;-88
2022/03/13 06:56:18;;;;;;;14.50;9.60;;;;;;;;;;6100185;23;20184;-89
2022/03/13 06:58:48;;;;;;;11.50;9.17;;;;;;;;;;6126165;23;20179;-88
2022/03/13 07:01:18;;;;;;;10.83;8.17;;;;;;;;;;6100240;23;20255;-89
2022/03/13 07:03:49;;;;;;;12.60;10.37;;;;;;;;;;6097912;23;20204;-88
2022/03/13 07:06:18;;;;;;;12.07;9.67;;;;;;;;;;6125950;23;20239;-88
2022/03/13 07:08:47;;;;;;;10.77;8.57;;;;;;;;;;6125766;23;20215;-89
2022/03/13 07:11:16;;;;;;;12.80;9.40;;;;;;;;;;6125929;23;20192;-88
2022/03/13 07:13:45;;;;;;;12.17;9.57;;;;;;;;;;6126289;23;20180;-89
2022/03/13 07:16:16;;;;;;;10.10;7.73;;;;;;;;;;6100457;23;20172;-88
2022/03/13 07:18:44;;;;;;;8.60;6.57;;;;;;;;;;6100450;23;20176;-89
2022/03/13 07:21:13;;;;;;;6.87;5.17;;;;;;;;;;6100551;23;20176;-89
2022/03/13 07:23:44;;;;;;;6.63;5.10;;;;;;;;;;6099760;23;20180;-89
2022/03/13 07:26:14;;;;;;;12.23;6.03;;;;;;;;;;6100079;23;20188;-88
2022/03/13 07:28:42;;;;;;;4.87;4.27;;;;;;;;;;6126291;23;20173;-88
2022/03/13 07:31:11;;;;;;;7.23;3.07;;;;;;;;;;6100355;23;20184;-88
2022/03/13 07:33:41;;;;;;;13.37;9.17;;;;;;;;;;6100028;23;20188;-87
2022/03/13 07:36:09;;;;;;;15.33;10.60;;;;;;;;;;6100500;23;20250;-88
2022/03/13 07:38:38;;;;;;;13.50;12.10;;;;;;;;;;6100022;23;20211;-88
2022/03/13 07:41:06;;;;;;;12.30;10.63;;;;;;;;;;6100370;23;20177;-88
2022/03/13 07:43:35;;;;;;;10.87;9.77;;;;;;;;;;6100364;23;20180;-88
2022/03/13 07:46:03;;;;;;;7.60;6.17;;;;;;;;;;6100184;23;20196;-88
2022/03/13 07:48:34;;;;;;;6.77;4.97;;;;;;;;;;6100452;23;20208;-89
2022/03/13 07:51:04;;;;;;;16.27;13.23;;;;;;;;;;6099823;23;20180;-88
2022/03/13 07:53:32;;;;;;;9.63;6.53;;;;;;;;;;6125736;23;20260;-88
2022/03/13 07:56:01;;;;;;;10.53;7.33;;;;;;;;;;6100234;23;20180;-90
2022/03/13 07:58:29;;;;;;;9.53;7.93;;;;;;;;;;6100081;23;20176;-90
2022/03/13 08:00:58;;;;;;;15.97;14.33;;;;;;;;;;6099737;23;20217;-90
2022/03/13 08:03:34;;;;;;;12.53;11.03;;;;;;;;;;6100170;23;20196;-88
2022/03/13 08:06:04;;;;;;;5.83;4.80;;;;;;;;;;6099882;23;20223;-90
2022/03/13 08:08:38;;;;;;;11.67;8.37;;;;;;;;;;6100383;23;20176;-91
2022/03/13 08:11:07;;;;;;;11.93;8.20;;;;;;;;;;6100197;23;20211;-87
2022/03/13 08:13:35;;;;;;;17.37;14.27;;;;;;;;;;6100533;23;20181;-89
2022/03/13 08:16:04;;;;;;;15.80;12.70;;;;;;;;;;6099900;23;20177;-90
2022/03/13 08:18:34;;;;;;;18.47;16.50;;;;;;;;;;6099859;23;20251;-90
2022/03/13 08:21:04;;;;;;;10.67;9.67;;;;;;;;;;6099745;23;20181;-90
2022/03/13 08:23:33;;;;;;;14.90;11.80;;;;;;;;;;6100175;23;20259;-90
2022/03/13 08:26:01;;;;;;;16.50;14.77;;;;;;;;;;6100179;23;20202;-88
2022/03/13 08:28:30;;;;;;;17.87;11.57;;;;;;;;;;6100325;23;20181;-90
2022/03/13 08:30:58;;;;;;;14.27;12.80;;;;;;;;;;6099817;23;20264;-90
2022/03/13 08:33:27;;;;;;;18.93;13.00;;;;;;;;;;6125680;23;20223;-90
2022/03/13 08:35:55;;;;;;;11.90;8.87;;;;;;;;;;6099653;23;20177;-91
2022/03/13 08:38:25;;;;;;;13.50;8.63;;;;;;;;;;6100043;23;20183;-90
2022/03/13 08:40:54;;;;;;;8.60;6.37;;;;;;;;;;6100123;23;20180;-88
2022/03/13 08:43:22;;;;;;;13.17;9.07;;;;;;;;;;6099966;23;20236;-87
2022/03/13 08:45:51;;;;;;;12.60;10.73;;;;;;;;;;6099850;23;20212;-89
2022/03/13 08:48:23;;;;;;;12.60;9.97;;;;;;;;;;6101502;23;20216;-88
2022/03/13 08:50:52;;;;;;;7.03;4.80;;;;;;;;;;6102195;23;20182;-88
2022/03/13 08:53:20;;;;;;;8.17;6.80;;;;;;;;;;6101684;23;20187;-89
2022/03/13 08:55:50;;;;;;;8.20;6.13;;;;;;;;;;6101709;23;20178;-88
2022/03/13 08:58:19;;;;;;;13.37;10.47;;;;;;;;;;6101511;23;20263;-89
2022/03/13 09:00:51;;;;;;;7.80;6.07;;;;;;;;;;6101971;23;20195;-89
2022/03/13 09:03:20;;;;;;;14.40;11.07;;;;;;;;;;6101935;23;20262;-88
2022/03/13 09:05:49;;;;;;;13.17;10.07;;;;;;;;;;6101227;23;20276;-89
2022/03/13 09:08:18;;;;;;;14.63;13.13;;;;;;;;;;6102234;23;20181;-89
2022/03/13 09:10:46;;;;;;;11.03;8.83;;;;;;;;;;6101536;23;20178;-89
2022/03/13 09:13:16;;;;;;;14.30;12.83;;;;;;;;;;6101915;23;20177;-88
2022/03/13 09:15:44;;;;;;;13.47;11.40;;;;;;;;;;6101376;23;20216;-88
2022/03/13 09:18:13;;;;;;;11.67;8.83;;;;;;;;;;6101823;23;20205;-89
2022/03/13 09:20:42;;;;;;;10.97;9.87;;;;;;;;;;6101895;23;20177;-89
2022/03/13 09:23:10;;;;;;;12.97;9.57;;;;;;;;;;6101777;23;20181;-89
2022/03/13 09:25:40;;;;;;;13.00;11.60;;;;;;;;;;6101205;23;20197;-89
2022/03/13 09:28:09;;;;;;;13.30;11.90;;;;;;;;;;6101206;23;20269;-88
2022/03/13 09:30:39;;;;;;;16.93;15.33;;;;;;;;;;6101536;23;20180;-89
2022/03/13 09:33:08;;;;;;;16.90;14.20;;;;;;;;;;6101452;23;20181;-88
2022/03/13 09:35:37;;;;;;;9.23;5.93;;;;;;;;;;6101229;23;20180;-89
2022/03/13 09:38:05;;;;;;;10.77;8.37;;;;;;;;;;6101324;23;20263;-88
2022/03/13 09:40:34;;;;;;;13.80;11.90;;;;;;;;;;6101541;23;20228;-89
2022/03/13 09:43:05;;;;;;;13.67;12.00;;;;;;;;;;6127214;23;20233;-89
2022/03/13 09:45:34;;;;;;;11.53;9.00;;;;;;;;;;6101872;23;20284;-89
2022/03/13 09:48:04;;;;;;;13.93;12.70;;;;;;;;;;6126601;23;20200;-89
2022/03/13 09:50:33;;;;;;;8.70;7.77;;;;;;;;;;6101736;23;20185;-89
2022/03/13 09:53:01;;;;;;;12.50;10.63;;;;;;;;;;6127113;23;20257;-89
2022/03/13 09:55:30;;;;;;;13.93;12.23;;;;;;;;;;6100879;23;20211;-88
2022/03/13 09:57:58;;;;;;;15.70;13.20;;;;;;;;;;6100994;23;20185;-89
2022/03/13 10:00:27;;;;;;;18.13;16.23;;;;;;;;;;6127104;23;20181;-89
2022/03/13 10:02:56;;;;;;;10.40;7.13;;;;;;;;;;6101051;23;20179;-89
2022/03/13 10:05:28;;;;;;;15.90;14.30;;;;;;;;;;6101090;23;20197;-89
2022/03/13 10:07:58;;;;;;;14.47;12.97;;;;;;;;;;6100981;23;20189;-90
2022/03/13 10:10:28;;;;;;;13.07;11.67;;;;;;;;;;6100844;23;20185;-88
2022/03/13 10:12:56;;;;;;;14.17;11.93;;;;;;;;;;6101039;23;20179;-89
2022/03/13 10:15:25;;;;;;;14.50;12.97;;;;;;;;;;6126701;23;20174;-89
2022/03/13 10:17:54;;;;;;;16.40;14.83;;;;;;;;;;6126936;23;20241;-89
2022/03/13 10:20:23;;;;;;;13.33;10.77;;;;;;;;;;6126581;23;20172;-89
2022/03/13 10:23:05;;;;;;;17.63;14.17;;;;;;;;;;6101177;23;20185;-89
2022/03/13 10:25:34;;;;;;;16.37;14.97;;;;;;;;;;6100644;23;20283;-91
2022/03/13 10:28:14;;;;;;;16.85;15.27;;;;;;;;;;6100579;23;20464;-91
2022/03/13 10:30:43;;;;;;;14.37;12.63;;;;;;;;;;6126909;23;20173;-90
2022/03/13 10:33:12;;;;;;;17.17;15.67;;;;;;;;;;6100801;23;20209;-89
2022/03/13 10:35:41;;;;;;;15.67;14.07;;;;;;;;;;6126635;23;20169;-90
2022/03/13 10:38:18;;;;;;;12.77;11.47;;;;;;;;;;6100752;23;20192;-90
2022/03/13 10:40:47;;;;;;;14.93;13.43;;;;;;;;;;6101217;23;20181;-89
2022/03/13 10:43:19;;;;;;;5.57;4.60;;;;;;;;;;6100799;23;20205;-91
2022/03/13 10:45:51;;;;;;;14.47;13.17;;;;;;;;;;6101094;23;20318;-89
2022/03/13 10:48:28;;;;;;;4.63;4.23;;;;;;;;;;6100402;23;20218;-90
2022/03/13 10:50:58;;;;;;;6.00;4.43;;;;;;;;;;6101391;23;20264;-91
2022/03/13 10:53:30;;;;;;;12.83;10.93;;;;;;;;;;6100815;23;20182;-88
2022/03/13 10:56:07;;;;;;;8.33;7.23;;;;;;;;;;6100753;23;20179;-90
2022/03/13 10:58:37;;;;;;;13.97;9.83;;;;;;;;;;6100943;23;20207;-89
2022/03/13 11:01:07;;;;;;;14.63;8.20;;;;;;;;;;6102056;23;20216;-89
2022/03/13 11:03:37;;;;;;;10.60;9.17;;;;;;;;;;6100969;23;20203;-86
2022/03/13 11:06:06;;;;;;;4.43;3.43;;;;;;;;;;6100162;23;20199;-86
2022/03/13 11:08:36;;;;;;;10.50;7.73;;;;;;;;;;6100072;23;20176;-84
2022/03/13 11:11:06;;;;;;;10.73;9.67;;;;;;;;;;6100369;23;20228;-84
2022/03/13 11:13:37;;;;;;;10.67;8.70;;;;;;;;;;6126120;23;20170;-86
2022/03/13 11:16:09;;;;;;;15.77;11.73;;;;;;;;;;6100391;23;20184;-84
2022/03/13 11:18:38;;;;;;;10.33;8.77;;;;;;;;;;6100502;23;20210;-84
2022/03/13 11:21:08;;;;;;;6.47;3.87;;;;;;;;;;6100343;23;20203;-84
2022/03/13 11:23:38;;;;;;;10.17;7.87;;;;;;;;;;6125914;23;20249;-83
2022/03/13 11:26:07;;;;;;;9.00;6.57;;;;;;;;;;6100515;23;20192;-84
2022/03/13 11:28:38;;;;;;;11.93;10.00;;;;;;;;;;6099928;23;20183;-83
2022/03/13 11:31:21;;;;;;;9.63;6.37;;;;;;;;;;6100471;23;20266;-83
2022/03/13 11:34:09;;;;;;;6.10;5.37;;;;;;;;;;6125827;23;20174;-83
2022/03/13 11:36:41;;;;;;;11.30;9.17;;;;;;;;;;6125958;23;20171;-84
2022/03/13 11:39:13;;;;;;;12.93;9.80;;;;;;;;;;6125937;23;20179;-84
2022/03/13 11:41:45;;;;;;;12.33;7.33;;;;;;;;;;6124326;23;20183;-84
2022/03/13 11:44:46;;;;;;;13.03;11.53;;;;;;;;;;6125442;23;20175;-84
2022/03/13 11:47:32;;;;;;;10.33;9.30;;;;;;;;;;5984606;23;20308;-85
2022/03/13 11:50:01;;;;;;;11.87;10.20;;;;;;;;;;6008200;23;20231;-86
2022/03/13 11:52:32;;;;;;;8.80;7.90;;;;;;;;;;6052485;23;20183;-88
2022/03/13 11:55:02;;;;;;;11.70;10.03;;;;;;;;;;6100307;23;20177;-85
2022/03/13 11:57:42;;;;;;;11.00;7.93;;;;;;;;;;6100099;23;20172;-89
2022/03/13 12:00:30;;;;;;;17.37;11.50;;;;;;;;;;6126330;23;20186;-91
2022/03/13 12:03:13;;;;;;;14.50;7.67;;;;;;;;;;6100260;23;20178;-89
2022/03/13 12:05:52;;;;;;;8.23;7.40;;;;;;;;;;6100343;23;20206;-89
2022/03/13 12:08:23;;;;;;;8.30;7.43;;;;;;;;;;6099894;23;20202;-89
2022/03/13 12:10:53;;;;;;;11.37;8.63;;;;;;;;;;6099872;23;20259;-89
2022/03/13 12:13:22;;;;;;;9.67;6.37;;;;;;;;;;6100132;23;20194;-90
2022/03/13 12:15:51;;;;;;;9.30;6.40;;;;;;;;;;6099810;23;20179;-90
2022/03/13 12:18:23;;;;;;;9.43;8.40;;;;;;;;;;6100448;23;20203;-89
2022/03/13 12:20:52;;;;;;;11.87;6.83;;;;;;;;;;6100183;23;20317;-89
2022/03/13 12:23:31;;;;;;;9.20;6.23;;;;;;;;;;6102419;23;20208;-89
2022/03/13 12:26:18;;;;;;;6.63;5.03;;;;;;;;;;6101904;23;20203;-89
2022/03/13 12:28:47;;;;;;;10.80;9.23;;;;;;;;;;6102404;23;20179;-89
2022/03/13 12:31:16;;;;;;;9.57;8.03;;;;;;;;;;6102222;23;20179;-89
2022/03/13 12:33:45;;;;;;;9.67;8.03;;;;;;;;;;6102429;23;20175;-89
2022/03/13 12:36:14;;;;;;;9.27;7.70;;;;;;;;;;6101830;23;20187;-89
2022/03/13 12:38:43;;;;;;;6.37;5.47;;;;;;;;;;6127921;23;20200;-89
2022/03/13 12:41:13;;;;;;;12.13;6.70;;;;;;;;;;6101706;23;20180;-88
2022/03/13 12:43:50;;;;;;;10.60;6.70;;;;;;;;;;6127797;23;20204;-89
2022/03/13 12:46:19;;;;;;;10.83;9.60;;;;;;;;;;6102036;23;20179;-88
2022/03/13 12:48:58;;;;;;;10.70;8.10;;;;;;;;;;6101365;23;20219;-88
2022/03/13 12:51:41;;;;;;;10.53;9.37;;;;;;;;;;6101799;23;20215;-89
2022/03/13 12:54:11;;;;;;;11.57;9.73;;;;;;;;;;6101440;23;20207;-89
2022/03/13 12:56:48;;;;;;;4.37;3.37;;;;;;;;;;6101832;23;20187;-89
2022/03/13 12:59:28;;;;;;;3.73;2.57;;;;;;;;;;6127277;23;20172;-89
2022/03/13 13:02:09;;;;;;;10.63;8.83;;;;;;;;;;6101834;23;20183;-88
2022/03/13 13:04:39;;;;;;;14.70;6.30;;;;;;;;;;6127064;23;20199;-89
2022/03/13 13:07:10;;;;;;;6.70;4.03;;;;;;;;;;6101420;23;20195;-89
2022/03/13 13:09:40;;;;;;;8.00;7.20;;;;;;;;;;6101697;23;20179;-88
2022/03/13 13:12:09;;;;;;;10.30;9.20;;;;;;;;;;6101726;23;20259;-89
2022/03/13 13:14:40;;;;;;;10.63;9.13;;;;;;;;;;6101465;23;20200;-88
2022/03/13 13:17:10;;;;;;;15.37;10.30;;;;;;;;;;6101807;23;20172;-88
2022/03/13 13:19:40;;;;;;;11.40;10.17;;;;;;;;;;6101739;23;20263;-89
2022/03/13 13:22:11;;;;;;;8.73;6.70;;;;;;;;;;6101602;23;20186;-86
2022/03/13 13:24:49;;;;;;;13.43;12.03;;;;;;;;;;6101594;23;20254;-88
2022/03/13 13:27:34;;;;;;;13.93;9.67;;;;;;;;;;6101521;23;20271;-89
2022/03/13 13:30:17;;;;;;;6.87;6.17;;;;;;;;;;6101683;23;20183;-89
2022/03/13 13:32:49;;;;;;;7.10;5.37;;;;;;;;;;6101074;23;20216;-89
2022/03/13 13:35:29;;;;;;;10.50;5.60;;;;;;;;;;6101647;23;20190;-89
2022/03/13 13:38:03;;;;;;;7.63;5.73;;;;;;;;;;6101466;23;20176;-89
2022/03/13 13:40:34;;;;;;;10.90;7.80;;;;;;;;;;6101404;23;20259;-89
2022/03/13 13:43:06;;;;;;;7.50;6.60;;;;;;;;;;6101693;23;20211;-89
2022/03/13 13:45:37;;;;;;;9.47;8.00;;;;;;;;;;6101465;23;20180;-89
2022/03/13 13:48:25;;;;;;;8.47;6.73;;;;;;;;;;6100944;23;20223;-89
2022/03/13 13:51:13;;;;;;;8.50;6.20;;;;;;;;;;6126947;23;20177;-89
2022/03/13 13:53:55;;;;;;;10.90;9.00;;;;;;;;;;6101738;23;20185;-89
2022/03/13 13:56:25;;;;;;;9.07;6.97;;;;;;;;;;6127059;23;20175;-89
2022/03/13 13:58:54;;;;;;;12.13;9.13;;;;;;;;;;6101314;23;20173;-89
2022/03/13 14:01:26;;;;;;;10.00;8.07;;;;;;;;;;6101520;23;20185;-89
2022/03/13 14:03:55;;;;;;;9.57;8.50;;;;;;;;;;6101539;23;20214;-89
2022/03/13 14:06:25;;;;;;;8.30;6.53;;;;;;;;;;6100953;23;20180;-89
2022/03/13 14:08:54;;;;;;;15.63;7.67;;;;;;;;;;6100709;23;20228;-89
2022/03/13 14:11:22;;;;;;;11.23;10.13;;;;;;;;;;6127133;23;20215;-89
2022/03/13 14:13:51;;;;;;;7.27;5.07;;;;;;;;;;6101476;23;20267;-89
2022/03/13 14:16:22;;;;;;;6.23;5.07;;;;;;;;;;6100766;23;20180;-89
2022/03/13 14:19:13;;;;;;;9.03;7.90;;;;;;;;;;6101625;23;20284;-89
2022/03/13 14:21:42;;;;;;;10.87;8.97;;;;;;;;;;6100930;23;20176;-89
2022/03/13 14:24:11;;;;;;;10.57;8.53;;;;;;;;;;6101217;23;20278;-89
2022/03/13 14:26:40;;;;;;;10.30;6.17;;;;;;;;;;6100864;23;20215;-88
2022/03/13 14:29:11;;;;;;;10.13;8.63;;;;;;;;;;6126991;23;20208;-89
2022/03/13 14:31:39;;;;;;;11.87;8.97;;;;;;;;;;6101053;23;20180;-88
2022/03/13 14:37:18;;;;;;;6.87;5.63;;;;;;;;;;6078804;23;20382;-90
2022/03/13 14:40:07;;;;;;;8.97;7.20;;;;;;;;;;6100982;23;20181;-90
2022/03/13 14:42:36;;;;;;;3.97;3.57;;;;;;;;;;6101059;23;20176;-90
2022/03/13 14:45:05;;;;;;;4.33;2.77;;;;;;;;;;6126451;23;20261;-90
2022/03/13 14:47:34;;;;;;;5.60;4.13;;;;;;;;;;6100701;23;20184;-89
2022/03/13 14:50:22;;;;;;;8.67;7.10;;;;;;;;;;6100425;23;20251;-90
2022/03/13 14:52:53;;;;;;;6.33;5.07;;;;;;;;;;6100903;23;20180;-90
2022/03/13 14:55:22;;;;;;;6.20;5.50;;;;;;;;;;6100742;23;20240;-90
2022/03/13 14:57:51;;;;;;;6.80;6.00;;;;;;;;;;6100277;23;20177;-89